Jack Holland — WDF3615 — position and weather

sailwx.info

Track history (hours):
 
Tides and Currents Weather Stations Pressure Air Temp Water Temp Dewpoint Dewpoint Depression Visibility Wind Speed Wind Dir Waves Ship Positions

Jack Holland

Owner: Norfolk Tug Company, Norfolk, VA. More information available from US FCC via Universal Licensing System and Coast Guard Vessel Documentation Center.

Last reported at 2018-Aug-20 12:14 UTC. Time now 2018-Aug-21 04:18 UTC.
Position N 36°53' W 076°20'.

Length 22 m; draft 2.5 m.

Type: Tug. MMSI: 367442020.

Date/timePositionNaut miles runAvg speedWind from/ knotsBaromVisibWave heightAir tempDewpointWater temp
2018-Aug-20 12:14N 36°53' W 076°20'2 9.2
2018-Aug-20 12:02N 36°52' W 076°19'0 9.4
2018-Aug-20 12:00N 36°52' W 076°19'3 5.0
2018-Aug-20 11:30N 36°50' W 076°16'0 0.0
2018-Aug-20 11:03N 36°50' W 076°16'0 0.0
2018-Aug-20 11:00N 36°50' W 076°16'0 0.0
2018-Aug-20 10:29N 36°50' W 076°16'0 0.0
2018-Aug-20 10:04N 36°50' W 076°16'0 0.0
2018-Aug-20 10:01N 36°50' W 076°16'0 0.0
2018-Aug-20 09:31N 36°50' W 076°16'0 0.0
2018-Aug-20 09:03N 36°50' W 076°16'0 0.0
2018-Aug-20 09:01N 36°50' W 076°16'0 0.0
2018-Aug-20 08:31N 36°50' W 076°16'0 0.0
2018-Aug-20 08:04N 36°50' W 076°16'0 0.1
2018-Aug-20 08:01N 36°50' W 076°16'0 0.0
2018-Aug-20 07:31N 36°50' W 076°16'0 0.0
2018-Aug-20 07:04N 36°50' W 076°16'0 0.0
2018-Aug-20 07:01N 36°50' W 076°16'0 0.0
2018-Aug-20 06:30N 36°50' W 076°16'0 0.0
2018-Aug-20 06:03N 36°50' W 076°16'0 0.0
2018-Aug-20 06:00N 36°50' W 076°16'0 0.0
2018-Aug-20 05:31N 36°50' W 076°16'0 0.0
2018-Aug-20 05:04N 36°50' W 076°16'0 0.0
2018-Aug-20 05:00N 36°50' W 076°16'0 0.0
2018-Aug-20 04:47N 36°50' W 076°16'0 0.0
2018-Aug-20 04:30N 36°50' W 076°16'0 0.0
2018-Aug-20 04:01N 36°50' W 076°16'0 0.0
2018-Aug-20 03:31N 36°50' W 076°16'0 0.0
2018-Aug-20 03:00N 36°50' W 076°16'0 0.0
2018-Aug-20 02:30N 36°50' W 076°16'0 0.0
2018-Aug-20 02:01N 36°50' W 076°16'0 0.0
2018-Aug-20 01:30N 36°50' W 076°16'0 0.0
2018-Aug-20 01:00N 36°50' W 076°16'0 0.0
2018-Aug-20 00:30N 36°50' W 076°16'0 0.0
2018-Aug-20 00:01N 36°50' W 076°16'0 0.0
2018-Aug-19 23:30N 36°50' W 076°16'0 0.0
2018-Aug-19 23:01N 36°50' W 076°16'0 0.0
2018-Aug-19 22:30N 36°50' W 076°16'0 0.0
2018-Aug-19 22:00N 36°50' W 076°16'0 0.0
2018-Aug-19 21:30N 36°50' W 076°16'0 0.0
2018-Aug-19 21:00N 36°50' W 076°16'0 0.0
2018-Aug-19 20:30N 36°50' W 076°16'0 0.0
2018-Aug-19 20:00N 36°50' W 076°16'0 0.0
2018-Aug-19 19:30N 36°50' W 076°16'0 0.0
2018-Aug-19 19:01N 36°50' W 076°16'0 0.0
2018-Aug-19 18:30N 36°50' W 076°16'0 0.8
2018-Aug-19 18:00N 36°50' W 076°17'2 4.3
2018-Aug-19 17:31N 36°48' W 076°17'2 3.9
2018-Aug-19 17:01N 36°46' W 076°18'0 0.1
2018-Aug-19 16:30N 36°46' W 076°18'2 3.4
2018-Aug-19 16:00N 36°48' W 076°17'3 5.8
2018-Aug-19 15:30N 36°51' W 076°18'3 5.7
2018-Aug-19 15:00N 36°53' W 076°20'110 4.4
2018-Aug-18 13:56N 38°38' W 075°37'15 4.9
2018-Aug-18 10:47N 38°26' W 075°50'97 7.0
2018-Aug-17 20:53N 36°52' W 076°20'3 7.4
2018-Aug-17 20:30N 36°50' W 076°18'3 6.8
2018-Aug-17 20:00N 36°47' W 076°19'1 1.9
2018-Aug-17 19:30N 36°46' W 076°18'1 1.3
2018-Aug-17 19:01N 36°47' W 076°18'1 2.5
2018-Aug-17 18:30N 36°48' W 076°18'3 5.2
2018-Aug-17 18:00N 36°50' W 076°17'1 1.3
2018-Aug-17 17:30N 36°50' W 076°16'0 0.0
2018-Aug-17 17:00N 36°50' W 076°16'0 0.0
2018-Aug-17 16:30N 36°50' W 076°16'0 0.0
2018-Aug-17 16:00N 36°50' W 076°16'0 0.0
2018-Aug-17 15:30N 36°50' W 076°16'0 0.0
2018-Aug-17 15:01N 36°50' W 076°16'0 0.0
2018-Aug-17 14:31N 36°50' W 076°16'0 0.0
2018-Aug-17 13:31N 36°50' W 076°16'0 0.0
2018-Aug-17 13:00N 36°50' W 076°16'0 0.0
2018-Aug-17 12:31N 36°50' W 076°16'0 0.0
2018-Aug-17 12:00N 36°50' W 076°16'0 0.0
2018-Aug-17 11:31N 36°50' W 076°16'0 0.0
2018-Aug-17 11:00N 36°50' W 076°16'0 0.0
2018-Aug-17 10:30N 36°50' W 076°16'0 0.6
2018-Aug-17 10:01N 36°50' W 076°17'4 7.2
2018-Aug-17 09:30N 36°53' W 076°20'4 6.7
2018-Aug-17 08:57N 36°56' W 076°20'3 0.3
2018-Aug-16 20:41N 36°53' W 076°20'1 6.8
2018-Aug-16 20:30N 36°52' W 076°19'3 6.2
2018-Aug-16 20:00N 36°50' W 076°16'0 0.1
2018-Aug-16 17:51N 36°50' W 076°16'0 0.0
2018-Aug-16 17:29N 36°50' W 076°16'0 0.0
2018-Aug-16 16:56N 36°50' W 076°16'0 0.0
2018-Aug-16 16:27N 36°50' W 076°16'0 0.0
2018-Aug-16 15:58N 36°50' W 076°16'0 0.1
2018-Aug-16 15:13N 36°50' W 076°16'0 1.1
2018-Aug-16 14:49N 36°50' W 076°16'0 0.3
2018-Aug-16 14:26N 36°50' W 076°16'0 0.0
2018-Aug-16 12:54N 36°51' W 076°16'0 0.2
2018-Aug-16 12:19N 36°50' W 076°16'2 6.2
2018-Aug-16 11:59N 36°51' W 076°18'4 6.4
2018-Aug-16 11:25N 36°54' W 076°20'3 6.7
2018-Aug-16 10:59N 36°57' W 076°20'2 5.1
2018-Aug-16 10:29N 36°59' W 076°19'3 4.8
2018-Aug-16 09:58N 37°00' W 076°16'3 5.6
2018-Aug-16 09:30N 37°02' W 076°14'54 6.7
2018-Aug-16 01:24N 37°57' W 076°13'3 7.6
2018-Aug-16 00:59N 37°58' W 076°17'5 7.3
2018-Aug-16 00:21N 38°01' W 076°22'3 7.2
2018-Aug-16 00:00N 38°02' W 076°24'4 7.2
2018-Aug-15 23:30N 38°04' W 076°28'4 7.2
2018-Aug-15 23:00N 38°06' W 076°32'42 5.2
2018-Aug-15 14:51N 38°37' W 077°10'2 5.7
2018-Aug-15 14:29N 38°38' W 077°08'3 5.7
2018-Aug-15 13:57N 38°41' W 077°07'3 5.6
2018-Aug-15 13:30N 38°42' W 077°04'3 5.1
2018-Aug-15 13:00N 38°44' W 077°02'1 2.4
2018-Aug-15 12:30N 38°45' W 077°02'0 0.0
2018-Aug-15 12:00N 38°45' W 077°02'2 4.5
2018-Aug-15 11:29N 38°43' W 077°03'3 7.0
2018-Aug-15 10:59N 38°41' W 077°07'3 6.1
2018-Aug-15 10:29N 38°38' W 077°08'3 5.4
2018-Aug-15 09:59N 38°37' W 077°10'15 4.6
2018-Aug-15 06:38N 38°21' W 077°12'34 4.7
2018-Aug-14 23:33N 38°07' W 076°33'1 6.4
2018-Aug-14 23:22N 38°07' W 076°32'3 6.4
2018-Aug-14 22:53N 38°05' W 076°28'3 6.8
2018-Aug-14 22:29N 38°03' W 076°26'3 6.8
2018-Aug-14 21:59N 38°01' W 076°22'3 7.1
2018-Aug-14 21:30N 37°59' W 076°19'64 6.4
2018-Aug-14 11:33N 36°56' W 076°20'0 6.9
2018-Aug-14 11:29N 36°55' W 076°20'3 6.6
2018-Aug-14 11:00N 36°52' W 076°20'3 6.3
2018-Aug-14 10:30N 36°50' W 076°16'1 0.7
2018-Aug-14 09:37N 36°50' W 076°16'0 3.7
2018-Aug-14 09:30N 36°50' W 076°16'0 0.1
2018-Aug-14 09:00N 36°50' W 076°16'1 2.0
2018-Aug-14 08:30N 36°51' W 076°17'3 5.7
2018-Aug-14 07:59N 36°53' W 076°20'3 5.8
2018-Aug-14 07:27N 36°56' W 076°20'3 0.1
2018-Aug-12 12:05N 36°53' W 076°20'1 6.4
2018-Aug-12 12:00N 36°52' W 076°20'3 5.9
2018-Aug-12 11:30N 36°50' W 076°17'0 0.6
2018-Aug-12 10:57N 36°50' W 076°16'0 0.2
2018-Aug-12 10:30N 36°50' W 076°16'0 0.0
2018-Aug-12 10:00N 36°50' W 076°16'0 0.0
2018-Aug-12 09:30N 36°50' W 076°16'0 0.0
2018-Aug-12 09:00N 36°50' W 076°16'0 0.0
2018-Aug-12 08:30N 36°50' W 076°16'0 0.0
2018-Aug-12 08:00N 36°50' W 076°16'0 0.0
2018-Aug-12 07:30N 36°50' W 076°16'0 0.0
2018-Aug-12 07:00N 36°50' W 076°16'0 0.0
2018-Aug-12 06:30N 36°50' W 076°16'0 0.0
2018-Aug-12 06:00N 36°50' W 076°16'0 0.0
2018-Aug-12 05:30N 36°50' W 076°16'0 0.0
2018-Aug-12 05:00N 36°50' W 076°16'0 0.0
2018-Aug-12 04:30N 36°50' W 076°16'0 0.0
2018-Aug-12 04:00N 36°50' W 076°16'0 0.0
2018-Aug-12 03:30N 36°50' W 076°16'0 0.0
2018-Aug-12 03:00N 36°50' W 076°16'0 0.0
2018-Aug-12 02:30N 36°50' W 076°16'0 0.0
2018-Aug-12 02:00N 36°50' W 076°16'0 0.0
2018-Aug-12 01:30N 36°50' W 076°16'0 0.0
2018-Aug-12 01:00N 36°50' W 076°16'0 0.0
2018-Aug-12 00:30N 36°50' W 076°16'0 0.0
2018-Aug-12 00:00N 36°50' W 076°16'0 0.0
2018-Aug-11 23:30N 36°50' W 076°16'0 0.0
2018-Aug-11 23:00N 36°50' W 076°16'0 0.0
2018-Aug-11 22:30N 36°50' W 076°16'0 0.0
2018-Aug-11 22:00N 36°50' W 076°16'0 0.0
2018-Aug-11 21:30N 36°50' W 076°16'0 0.0
2018-Aug-11 21:00N 36°50' W 076°16'0 0.0
2018-Aug-11 20:30N 36°50' W 076°16'0 0.0
2018-Aug-11 20:00N 36°50' W 076°16'0 0.0
2018-Aug-11 19:30N 36°50' W 076°16'0 0.0
2018-Aug-11 19:00N 36°50' W 076°16'0 0.0
2018-Aug-11 18:30N 36°50' W 076°16'0 0.0
2018-Aug-11 18:00N 36°50' W 076°16'0 0.0
2018-Aug-11 17:30N 36°50' W 076°16'0 0.0
2018-Aug-11 17:00N 36°50' W 076°16'0 0.0
2018-Aug-11 16:30N 36°50' W 076°16'0 0.0
2018-Aug-11 16:00N 36°50' W 076°16'0 0.0
2018-Aug-11 15:30N 36°50' W 076°16'0 0.0
2018-Aug-11 15:00N 36°50' W 076°16'0 0.0
2018-Aug-11 14:30N 36°50' W 076°16'0 0.1
2018-Aug-11 14:00N 36°50' W 076°16'0 0.1
2018-Aug-11 13:30N 36°50' W 076°16'0 0.0
2018-Aug-11 13:00N 36°50' W 076°16'0 0.0
2018-Aug-11 12:30N 36°50' W 076°16'0 0.0
2018-Aug-11 12:00N 36°50' W 076°16'0 0.0
2018-Aug-11 11:30N 36°50' W 076°16'0 0.0
2018-Aug-11 11:00N 36°50' W 076°16'0 0.0
2018-Aug-11 10:30N 36°50' W 076°16'0 0.0
2018-Aug-11 10:00N 36°50' W 076°16'0 0.0
2018-Aug-11 09:30N 36°50' W 076°16'0 0.0
2018-Aug-11 09:00N 36°50' W 076°16'0 0.0
2018-Aug-11 08:30N 36°50' W 076°16'0 0.0
2018-Aug-11 08:00N 36°50' W 076°16'0 0.0
2018-Aug-11 07:30N 36°50' W 076°16'0 0.0
2018-Aug-11 07:00N 36°50' W 076°16'0 0.0
2018-Aug-11 06:30N 36°50' W 076°16'0 0.0
2018-Aug-11 06:00N 36°50' W 076°16'0 0.0
2018-Aug-11 05:29N 36°50' W 076°16'0 0.0
2018-Aug-11 04:59N 36°50' W 076°16'0 0.0
2018-Aug-11 04:30N 36°50' W 076°16'0 0.0
2018-Aug-11 04:00N 36°50' W 076°16'0 0.0
2018-Aug-11 03:30N 36°50' W 076°16'0 0.0
2018-Aug-11 03:00N 36°50' W 076°16'0 0.0
2018-Aug-11 02:30N 36°50' W 076°16'0 0.0
2018-Aug-11 02:00N 36°50' W 076°16'0 0.0
2018-Aug-11 01:30N 36°50' W 076°16'0 0.0
2018-Aug-11 01:00N 36°50' W 076°16'0 0.0
2018-Aug-11 00:30N 36°50' W 076°16'0 0.0
2018-Aug-11 00:00N 36°50' W 076°16'  
Track history (hours):
 
Tides and Currents Weather Stations Pressure Air Temp Water Temp Dewpoint Dewpoint Depression Visibility Wind Speed Wind Dir Waves Ship Positions

Jack Holland

Owner: Norfolk Tug Company, Norfolk, VA. More information available from US FCC via Universal Licensing System and Coast Guard Vessel Documentation Center.

Last reported at 2018-Aug-20 12:14 UTC. Time now 2018-Aug-21 04:18 UTC.
Position N 36°53' W 076°20'.

Length 22 m; draft 2.5 m.

Type: Tug. MMSI: 367442020.

Date/timePositionNaut miles runAvg speedWind from/ knotsBaromVisibWave heightAir tempDewpointWater temp
2018-Aug-20 12:14N 36°53' W 076°20'2 9.2
2018-Aug-20 12:02N 36°52' W 076°19'0 9.4
2018-Aug-20 12:00N 36°52' W 076°19'3 5.0
2018-Aug-20 11:30N 36°50' W 076°16'0 0.0
2018-Aug-20 11:03N 36°50' W 076°16'0 0.0
2018-Aug-20 11:00N 36°50' W 076°16'0 0.0
2018-Aug-20 10:29N 36°50' W 076°16'0 0.0
2018-Aug-20 10:04N 36°50' W 076°16'0 0.0
2018-Aug-20 10:01N 36°50' W 076°16'0 0.0
2018-Aug-20 09:31N 36°50' W 076°16'0 0.0
2018-Aug-20 09:03N 36°50' W 076°16'0 0.0
2018-Aug-20 09:01N 36°50' W 076°16'0 0.0
2018-Aug-20 08:31N 36°50' W 076°16'0 0.0
2018-Aug-20 08:04N 36°50' W 076°16'0 0.1
2018-Aug-20 08:01N 36°50' W 076°16'0 0.0
2018-Aug-20 07:31N 36°50' W 076°16'0 0.0
2018-Aug-20 07:04N 36°50' W 076°16'0 0.0
2018-Aug-20 07:01N 36°50' W 076°16'0 0.0
2018-Aug-20 06:30N 36°50' W 076°16'0 0.0
2018-Aug-20 06:03N 36°50' W 076°16'0 0.0
2018-Aug-20 06:00N 36°50' W 076°16'0 0.0
2018-Aug-20 05:31N 36°50' W 076°16'0 0.0
2018-Aug-20 05:04N 36°50' W 076°16'0 0.0
2018-Aug-20 05:00N 36°50' W 076°16'0 0.0
2018-Aug-20 04:47N 36°50' W 076°16'0 0.0
2018-Aug-20 04:30N 36°50' W 076°16'0 0.0
2018-Aug-20 04:01N 36°50' W 076°16'0 0.0
2018-Aug-20 03:31N 36°50' W 076°16'0 0.0
2018-Aug-20 03:00N 36°50' W 076°16'0 0.0
2018-Aug-20 02:30N 36°50' W 076°16'0 0.0
2018-Aug-20 02:01N 36°50' W 076°16'0 0.0
2018-Aug-20 01:30N 36°50' W 076°16'0 0.0
2018-Aug-20 01:00N 36°50' W 076°16'0 0.0
2018-Aug-20 00:30N 36°50' W 076°16'0 0.0
2018-Aug-20 00:01N 36°50' W 076°16'0 0.0
2018-Aug-19 23:30N 36°50' W 076°16'0 0.0
2018-Aug-19 23:01N 36°50' W 076°16'0 0.0
2018-Aug-19 22:30N 36°50' W 076°16'0 0.0
2018-Aug-19 22:00N 36°50' W 076°16'0 0.0
2018-Aug-19 21:30N 36°50' W 076°16'0 0.0
2018-Aug-19 21:00N 36°50' W 076°16'0 0.0
2018-Aug-19 20:30N 36°50' W 076°16'0 0.0
2018-Aug-19 20:00N 36°50' W 076°16'0 0.0
2018-Aug-19 19:30N 36°50' W 076°16'0 0.0
2018-Aug-19 19:01N 36°50' W 076°16'0 0.0
2018-Aug-19 18:30N 36°50' W 076°16'0 0.8
2018-Aug-19 18:00N 36°50' W 076°17'2 4.3
2018-Aug-19 17:31N 36°48' W 076°17'2 3.9
2018-Aug-19 17:01N 36°46' W 076°18'0 0.1
2018-Aug-19 16:30N 36°46' W 076°18'2 3.4
2018-Aug-19 16:00N 36°48' W 076°17'3 5.8
2018-Aug-19 15:30N 36°51' W 076°18'3 5.7
2018-Aug-19 15:00N 36°53' W 076°20'110 4.4
2018-Aug-18 13:56N 38°38' W 075°37'15 4.9
2018-Aug-18 10:47N 38°26' W 075°50'97 7.0
2018-Aug-17 20:53N 36°52' W 076°20'3 7.4
2018-Aug-17 20:30N 36°50' W 076°18'3 6.8
2018-Aug-17 20:00N 36°47' W 076°19'1 1.9
2018-Aug-17 19:30N 36°46' W 076°18'1 1.3
2018-Aug-17 19:01N 36°47' W 076°18'1 2.5
2018-Aug-17 18:30N 36°48' W 076°18'3 5.2
2018-Aug-17 18:00N 36°50' W 076°17'1 1.3
2018-Aug-17 17:30N 36°50' W 076°16'0 0.0
2018-Aug-17 17:00N 36°50' W 076°16'0 0.0
2018-Aug-17 16:30N 36°50' W 076°16'0 0.0
2018-Aug-17 16:00N 36°50' W 076°16'0 0.0
2018-Aug-17 15:30N 36°50' W 076°16'0 0.0
2018-Aug-17 15:01N 36°50' W 076°16'0 0.0
2018-Aug-17 14:31N 36°50' W 076°16'0 0.0
2018-Aug-17 13:31N 36°50' W 076°16'0 0.0
2018-Aug-17 13:00N 36°50' W 076°16'0 0.0
2018-Aug-17 12:31N 36°50' W 076°16'0 0.0
2018-Aug-17 12:00N 36°50' W 076°16'0 0.0
2018-Aug-17 11:31N 36°50' W 076°16'0 0.0
2018-Aug-17 11:00N 36°50' W 076°16'0 0.0
2018-Aug-17 10:30N 36°50' W 076°16'0 0.6
2018-Aug-17 10:01N 36°50' W 076°17'4 7.2
2018-Aug-17 09:30N 36°53' W 076°20'4 6.7
2018-Aug-17 08:57N 36°56' W 076°20'3 0.3
2018-Aug-16 20:41N 36°53' W 076°20'1 6.8
2018-Aug-16 20:30N 36°52' W 076°19'3 6.2
2018-Aug-16 20:00N 36°50' W 076°16'0 0.1
2018-Aug-16 17:51N 36°50' W 076°16'0 0.0
2018-Aug-16 17:29N 36°50' W 076°16'0 0.0
2018-Aug-16 16:56N 36°50' W 076°16'0 0.0
2018-Aug-16 16:27N 36°50' W 076°16'0 0.0
2018-Aug-16 15:58N 36°50' W 076°16'0 0.1
2018-Aug-16 15:13N 36°50' W 076°16'0 1.1
2018-Aug-16 14:49N 36°50' W 076°16'0 0.3
2018-Aug-16 14:26N 36°50' W 076°16'0 0.0
2018-Aug-16 12:54N 36°51' W 076°16'0 0.2
2018-Aug-16 12:19N 36°50' W 076°16'2 6.2
2018-Aug-16 11:59N 36°51' W 076°18'4 6.4
2018-Aug-16 11:25N 36°54' W 076°20'3 6.7
2018-Aug-16 10:59N 36°57' W 076°20'2 5.1
2018-Aug-16 10:29N 36°59' W 076°19'3 4.8
2018-Aug-16 09:58N 37°00' W 076°16'3 5.6
2018-Aug-16 09:30N 37°02' W 076°14'54 6.7
2018-Aug-16 01:24N 37°57' W 076°13'3 7.6
2018-Aug-16 00:59N 37°58' W 076°17'5 7.3
2018-Aug-16 00:21N 38°01' W 076°22'3 7.2
2018-Aug-16 00:00N 38°02' W 076°24'4 7.2
2018-Aug-15 23:30N 38°04' W 076°28'4 7.2
2018-Aug-15 23:00N 38°06' W 076°32'42 5.2
2018-Aug-15 14:51N 38°37' W 077°10'2 5.7
2018-Aug-15 14:29N 38°38' W 077°08'3 5.7
2018-Aug-15 13:57N 38°41' W 077°07'3 5.6
2018-Aug-15 13:30N 38°42' W 077°04'3 5.1
2018-Aug-15 13:00N 38°44' W 077°02'1 2.4
2018-Aug-15 12:30N 38°45' W 077°02'0 0.0
2018-Aug-15 12:00N 38°45' W 077°02'2 4.5
2018-Aug-15 11:29N 38°43' W 077°03'3 7.0
2018-Aug-15 10:59N 38°41' W 077°07'3 6.1
2018-Aug-15 10:29N 38°38' W 077°08'3 5.4
2018-Aug-15 09:59N 38°37' W 077°10'15 4.6
2018-Aug-15 06:38N 38°21' W 077°12'34 4.7
2018-Aug-14 23:33N 38°07' W 076°33'1 6.4
2018-Aug-14 23:22N 38°07' W 076°32'3 6.4
2018-Aug-14 22:53N 38°05' W 076°28'3 6.8
2018-Aug-14 22:29N 38°03' W 076°26'3 6.8
2018-Aug-14 21:59N 38°01' W 076°22'3 7.1
2018-Aug-14 21:30N 37°59' W 076°19'64 6.4
2018-Aug-14 11:33N 36°56' W 076°20'0 6.9
2018-Aug-14 11:29N 36°55' W 076°20'3 6.6
2018-Aug-14 11:00N 36°52' W 076°20'3 6.3
2018-Aug-14 10:30N 36°50' W 076°16'1 0.7
2018-Aug-14 09:37N 36°50' W 076°16'0 3.7
2018-Aug-14 09:30N 36°50' W 076°16'0 0.1
2018-Aug-14 09:00N 36°50' W 076°16'1 2.0
2018-Aug-14 08:30N 36°51' W 076°17'3 5.7
2018-Aug-14 07:59N 36°53' W 076°20'3 5.8
2018-Aug-14 07:27N 36°56' W 076°20'3 0.1
2018-Aug-12 12:05N 36°53' W 076°20'1 6.4
2018-Aug-12 12:00N 36°52' W 076°20'3 5.9
2018-Aug-12 11:30N 36°50' W 076°17'0 0.6
2018-Aug-12 10:57N 36°50' W 076°16'0 0.2
2018-Aug-12 10:30N 36°50' W 076°16'0 0.0
2018-Aug-12 10:00N 36°50' W 076°16'0 0.0
2018-Aug-12 09:30N 36°50' W 076°16'0 0.0
2018-Aug-12 09:00N 36°50' W 076°16'0 0.0
2018-Aug-12 08:30N 36°50' W 076°16'0 0.0
2018-Aug-12 08:00N 36°50' W 076°16'0 0.0
2018-Aug-12 07:30N 36°50' W 076°16'0 0.0
2018-Aug-12 07:00N 36°50' W 076°16'0 0.0
2018-Aug-12 06:30N 36°50' W 076°16'0 0.0
2018-Aug-12 06:00N 36°50' W 076°16'0 0.0
2018-Aug-12 05:30N 36°50' W 076°16'0 0.0
2018-Aug-12 05:00N 36°50' W 076°16'0 0.0
2018-Aug-12 04:30N 36°50' W 076°16'0 0.0
2018-Aug-12 04:00N 36°50' W 076°16'0 0.0
2018-Aug-12 03:30N 36°50' W 076°16'0 0.0
2018-Aug-12 03:00N 36°50' W 076°16'0 0.0
2018-Aug-12 02:30N 36°50' W 076°16'0 0.0
2018-Aug-12 02:00N 36°50' W 076°16'0 0.0
2018-Aug-12 01:30N 36°50' W 076°16'0 0.0
2018-Aug-12 01:00N 36°50' W 076°16'0 0.0
2018-Aug-12 00:30N 36°50' W 076°16'0 0.0
2018-Aug-12 00:00N 36°50' W 076°16'0 0.0
2018-Aug-11 23:30N 36°50' W 076°16'0 0.0
2018-Aug-11 23:00N 36°50' W 076°16'0 0.0
2018-Aug-11 22:30N 36°50' W 076°16'0 0.0
2018-Aug-11 22:00N 36°50' W 076°16'0 0.0
2018-Aug-11 21:30N 36°50' W 076°16'0 0.0
2018-Aug-11 21:00N 36°50' W 076°16'0 0.0
2018-Aug-11 20:30N 36°50' W 076°16'0 0.0
2018-Aug-11 20:00N 36°50' W 076°16'0 0.0
2018-Aug-11 19:30N 36°50' W 076°16'0 0.0
2018-Aug-11 19:00N 36°50' W 076°16'0 0.0
2018-Aug-11 18:30N 36°50' W 076°16'0 0.0
2018-Aug-11 18:00N 36°50' W 076°16'0 0.0
2018-Aug-11 17:30N 36°50' W 076°16'0 0.0
2018-Aug-11 17:00N 36°50' W 076°16'0 0.0
2018-Aug-11 16:30N 36°50' W 076°16'0 0.0
2018-Aug-11 16:00N 36°50' W 076°16'0 0.0
2018-Aug-11 15:30N 36°50' W 076°16'0 0.0
2018-Aug-11 15:00N 36°50' W 076°16'0 0.0
2018-Aug-11 14:30N 36°50' W 076°16'0 0.1
2018-Aug-11 14:00N 36°50' W 076°16'0 0.1
2018-Aug-11 13:30N 36°50' W 076°16'0 0.0
2018-Aug-11 13:00N 36°50' W 076°16'0 0.0
2018-Aug-11 12:30N 36°50' W 076°16'0 0.0
2018-Aug-11 12:00N 36°50' W 076°16'0 0.0
2018-Aug-11 11:30N 36°50' W 076°16'0 0.0
2018-Aug-11 11:00N 36°50' W 076°16'0 0.0
2018-Aug-11 10:30N 36°50' W 076°16'0 0.0
2018-Aug-11 10:00N 36°50' W 076°16'0 0.0
2018-Aug-11 09:30N 36°50' W 076°16'0 0.0
2018-Aug-11 09:00N 36°50' W 076°16'0 0.0
2018-Aug-11 08:30N 36°50' W 076°16'0 0.0
2018-Aug-11 08:00N 36°50' W 076°16'0 0.0
2018-Aug-11 07:30N 36°50' W 076°16'0 0.0
2018-Aug-11 07:00N 36°50' W 076°16'0 0.0
2018-Aug-11 06:30N 36°50' W 076°16'0 0.0
2018-Aug-11 06:00N 36°50' W 076°16'0 0.0
2018-Aug-11 05:29N 36°50' W 076°16'0 0.0
2018-Aug-11 04:59N 36°50' W 076°16'0 0.0
2018-Aug-11 04:30N 36°50' W 076°16'0 0.0
2018-Aug-11 04:00N 36°50' W 076°16'0 0.0
2018-Aug-11 03:30N 36°50' W 076°16'0 0.0
2018-Aug-11 03:00N 36°50' W 076°16'0 0.0
2018-Aug-11 02:30N 36°50' W 076°16'0 0.0
2018-Aug-11 02:00N 36°50' W 076°16'0 0.0
2018-Aug-11 01:30N 36°50' W 076°16'0 0.0
2018-Aug-11 01:00N 36°50' W 076°16'0 0.0
2018-Aug-11 00:30N 36°50' W 076°16'0 0.0
2018-Aug-11 00:00N 36°50' W 076°16'  

Dump ship's entire track history